createdAt,value
2023-01-30T00:00:03.513Z,-0.10
2023-01-30T00:04:29.492Z,-0.20
2023-01-30T00:08:53.773Z,-0.20
2023-01-30T00:13:17.952Z,-0.30
2023-01-30T00:17:41.760Z,-0.40
2023-01-30T00:22:06.951Z,-0.50
2023-01-30T00:26:30.867Z,-0.50
2023-01-30T00:30:56.076Z,-0.60
2023-01-30T00:35:20.319Z,-0.50
2023-01-30T00:39:45.514Z,-0.50
2023-01-30T00:44:27.289Z,-0.50
2023-01-30T00:48:51.227Z,-0.40
2023-01-30T00:53:16.811Z,-0.40
2023-01-30T00:57:42.167Z,-0.50
2023-01-30T01:02:06.047Z,-0.50
2023-01-30T01:06:30.913Z,-0.60
2023-01-30T01:10:54.756Z,-0.60
2023-01-30T01:15:20.902Z,-0.70
2023-01-30T01:19:45.540Z,-0.70
2023-01-30T01:24:14.258Z,-0.70
2023-01-30T01:28:38.169Z,-0.80
2023-01-30T01:33:03.357Z,-0.80
2023-01-30T01:37:27.335Z,-0.80
2023-01-30T01:41:51.133Z,-0.70
2023-01-30T01:46:22.789Z,-0.70
2023-01-30T01:50:54.080Z,-0.60
2023-01-30T01:55:18.962Z,-0.60
2023-01-30T01:59:47.199Z,-0.60
2023-01-30T02:04:13.343Z,-0.40
2023-01-30T02:08:46.905Z,-0.40
2023-01-30T02:13:10.820Z,-0.20
2023-01-30T02:17:34.614Z,-0.20
2023-01-30T02:22:31.580Z,-0.10
2023-01-30T02:27:29.108Z,0.00
2023-01-30T02:31:59.966Z,0.10
2023-01-30T02:36:33.740Z,0.20
2023-01-30T02:41:06.321Z,0.20
2023-01-30T02:45:37.660Z,0.20
2023-01-30T02:50:09.014Z,0.30
2023-01-30T02:54:33.269Z,0.40
2023-01-30T02:59:02.047Z,0.40
2023-01-30T03:03:55.108Z,0.40
2023-01-30T03:08:28.714Z,0.50
2023-01-30T03:13:00.162Z,0.50
2023-01-30T03:17:27.970Z,0.60
2023-01-30T03:21:51.918Z,0.70
2023-01-30T03:26:21.916Z,0.70
2023-01-30T03:30:47.160Z,0.80
2023-01-30T03:35:11.646Z,0.90
2023-01-30T03:39:35.683Z,1.00
2023-01-30T03:44:00.925Z,1.00
2023-01-30T03:48:25.204Z,1.10
2023-01-30T03:52:51.950Z,1.20
2023-01-30T03:57:17.902Z,1.30
2023-01-30T04:01:43.372Z,1.30
2023-01-30T04:06:07.957Z,1.40
2023-01-30T04:10:32.060Z,1.50
2023-01-30T04:14:56.208Z,1.50
2023-01-30T04:19:37.691Z,1.60
2023-01-30T04:24:02.004Z,1.70
2023-01-30T04:28:25.987Z,1.70
2023-01-30T04:32:50.651Z,1.80
2023-01-30T04:37:15.922Z,1.90
2023-01-30T04:41:41.971Z,1.90
2023-01-30T04:46:06.726Z,1.90
2023-01-30T04:50:31.220Z,2.00
2023-01-30T04:54:56.753Z,2.00
2023-01-30T04:59:20.821Z,2.10
2023-01-30T05:03:46.531Z,2.20
2023-01-30T05:08:10.689Z,2.20
2023-01-30T05:12:35.964Z,2.30
2023-01-30T05:17:00.158Z,2.40
2023-01-30T05:21:27.925Z,2.40
2023-01-30T05:25:51.801Z,2.40
2023-01-30T05:30:17.326Z,2.40
2023-01-30T05:34:41.349Z,2.50
2023-01-30T05:39:05.697Z,2.50
2023-01-30T05:43:29.978Z,2.50
2023-01-30T05:48:00.644Z,2.50
2023-01-30T05:52:25.041Z,2.60
2023-01-30T05:56:50.691Z,2.60
2023-01-30T06:01:14.660Z,2.70
2023-01-30T06:05:40.479Z,2.70
2023-01-30T06:10:04.590Z,2.70
2023-01-30T06:14:28.434Z,2.70
2023-01-30T06:18:52.287Z,2.70
2023-01-30T06:23:18.215Z,2.70
2023-01-30T06:27:43.988Z,2.80
2023-01-30T06:32:09.522Z,2.70
2023-01-30T06:36:33.555Z,2.70
2023-01-30T06:40:58.711Z,2.80
2023-01-30T06:45:22.824Z,2.80
2023-01-30T06:49:46.872Z,2.80
2023-01-30T06:54:10.779Z,2.80
2023-01-30T06:58:36.060Z,2.80
2023-01-30T07:03:00.160Z,2.80
2023-01-30T07:07:24.441Z,2.90
2023-01-30T07:11:50.365Z,3.00
2023-01-30T07:16:15.732Z,3.00
2023-01-30T07:20:40.327Z,3.10
2023-01-30T07:25:04.222Z,3.10
2023-01-30T07:29:28.227Z,3.20
2023-01-30T07:33:53.564Z,3.20
2023-01-30T07:38:17.441Z,3.20
2023-01-30T07:42:41.215Z,3.30
2023-01-30T07:47:05.088Z,3.30
2023-01-30T07:51:30.406Z,3.40
2023-01-30T07:55:54.157Z,3.40
2023-01-30T08:00:19.276Z,3.50
2023-01-30T08:04:43.483Z,3.50
2023-01-30T08:09:09.007Z,3.50
2023-01-30T08:13:33.085Z,3.60
2023-01-30T08:17:58.193Z,3.70
2023-01-30T08:22:21.963Z,3.70
2023-01-30T08:26:49.491Z,3.80
2023-01-30T08:31:14.606Z,3.90
2023-01-30T08:35:38.475Z,3.90
2023-01-30T08:40:02.233Z,3.90
2023-01-30T08:44:27.514Z,3.90
2023-01-30T08:48:51.534Z,4.00
2023-01-30T08:53:15.666Z,4.00
2023-01-30T08:57:39.610Z,4.00
2023-01-30T09:02:04.918Z,4.00
2023-01-30T09:06:28.721Z,4.10
2023-01-30T09:10:52.537Z,4.20
2023-01-30T09:15:16.531Z,4.20
2023-01-30T09:19:41.921Z,4.40
2023-01-30T09:24:06.289Z,4.50
2023-01-30T09:28:30.486Z,4.60
2023-01-30T09:32:54.530Z,4.70
2023-01-30T09:37:19.793Z,4.90
2023-01-30T09:41:57.005Z,5.10
2023-01-30T09:46:32.091Z,5.20
2023-01-30T09:51:36.183Z,5.20
2023-01-30T09:56:01.788Z,5.30
2023-01-30T10:00:31.441Z,5.30
2023-01-30T10:05:01.671Z,5.20
2023-01-30T10:09:36.364Z,5.10
2023-01-30T10:14:29.420Z,5.10
2023-01-30T10:19:35.593Z,5.00
2023-01-30T10:24:16.510Z,5.10
2023-01-30T10:28:49.772Z,5.10
2023-01-30T10:33:25.100Z,5.10
2023-01-30T10:37:58.184Z,5.00
2023-01-30T10:42:27.705Z,4.90
2023-01-30T10:47:17.087Z,4.80
2023-01-30T10:51:54.214Z,4.80
2023-01-30T10:56:21.753Z,4.70
2023-01-30T11:00:52.597Z,4.80
2023-01-30T11:05:20.144Z,4.80
2023-01-30T11:09:47.977Z,4.80
2023-01-30T11:14:13.430Z,4.80
2023-01-30T11:23:35.799Z,4.80
2023-01-30T11:28:04.259Z,4.90
2023-01-30T11:32:30.402Z,5.10
2023-01-30T11:36:54.643Z,5.30
2023-01-30T11:41:22.427Z,5.40
2023-01-30T11:45:50.619Z,5.50
2023-01-30T11:50:20.303Z,5.70
2023-01-30T11:54:48.107Z,6.00
2023-01-30T11:59:24.781Z,6.10
2023-01-30T12:03:55.228Z,6.10
2023-01-30T12:08:41.117Z,6.10
2023-01-30T12:13:17.289Z,5.90
2023-01-30T12:17:47.092Z,5.80
2023-01-30T12:22:22.853Z,5.80
2023-01-30T12:26:51.107Z,5.70
2023-01-30T12:31:21.146Z,5.70
2023-01-30T12:35:59.078Z,5.80
2023-01-30T12:40:36.279Z,5.90
2023-01-30T12:45:13.902Z,5.90
2023-01-30T12:49:59.507Z,5.90
2023-01-30T12:54:36.493Z,5.90
2023-01-30T12:59:06.115Z,5.80
2023-01-30T13:03:38.528Z,5.80
2023-01-30T13:08:12.385Z,5.70
2023-01-30T13:12:44.524Z,5.70
2023-01-30T13:17:28.689Z,5.70
2023-01-30T13:22:00.872Z,5.70
2023-01-30T13:26:31.277Z,5.80
2023-01-30T13:30:56.892Z,5.90
2023-01-30T13:35:26.272Z,6.00
2023-01-30T13:39:53.885Z,6.00
2023-01-30T13:44:22.745Z,6.00
2023-01-30T13:48:57.316Z,6.00
2023-01-30T13:53:31.319Z,5.90
2023-01-30T13:58:02.923Z,5.90
2023-01-30T14:02:27.397Z,5.80
2023-01-30T14:06:51.437Z,5.70
2023-01-30T14:11:38.860Z,5.70
2023-01-30T14:16:05.432Z,5.60
2023-01-30T14:20:30.704Z,5.60
2023-01-30T14:25:46.423Z,5.60
2023-01-30T14:30:37.624Z,5.60
2023-01-30T14:35:22.964Z,5.60
2023-01-30T14:39:53.529Z,5.70
2023-01-30T14:44:50.563Z,5.60
2023-01-30T14:49:34.175Z,5.50
2023-01-30T14:54:00.697Z,5.40
2023-01-30T14:58:24.602Z,5.20
2023-01-30T15:02:52.987Z,5.20
2023-01-30T15:07:23.211Z,5.10
2023-01-30T15:11:55.216Z,5.00
2023-01-30T15:16:47.512Z,5.00
2023-01-30T15:21:37.301Z,5.00
2023-01-30T15:26:16.557Z,4.90
2023-01-30T15:30:59.629Z,4.90
2023-01-30T15:35:28.578Z,4.90
2023-01-30T15:39:52.480Z,4.80
2023-01-30T15:44:41.568Z,4.90
2023-01-30T15:49:36.109Z,4.80
2023-01-30T15:54:02.471Z,4.80
2023-01-30T15:58:26.812Z,4.90
2023-01-30T16:02:54.610Z,4.80
2023-01-30T16:07:24.606Z,4.90
2023-01-30T16:11:49.120Z,4.90
2023-01-30T16:16:17.005Z,4.90
2023-01-30T16:21:01.595Z,4.90
2023-01-30T16:25:25.985Z,4.90
2023-01-30T16:29:54.531Z,4.90
2023-01-30T16:34:33.665Z,4.90
2023-01-30T16:38:59.127Z,4.90
2023-01-30T16:43:26.059Z,4.90
2023-01-30T16:47:50.162Z,4.90
2023-01-30T16:52:20.930Z,4.90
2023-01-30T16:56:54.549Z,4.80
2023-01-30T17:01:19.158Z,4.90
2023-01-30T17:05:46.632Z,4.90
2023-01-30T17:10:52.453Z,4.90
2023-01-30T17:15:37.067Z,4.90
2023-01-30T17:20:01.056Z,5.00
2023-01-30T17:24:26.261Z,5.00
2023-01-30T17:28:50.389Z,5.00
2023-01-30T17:33:16.209Z,5.00
2023-01-30T17:37:42.162Z,5.00
2023-01-30T17:42:10.335Z,5.00
2023-01-30T17:46:37.359Z,5.00
2023-01-30T17:51:02.661Z,4.90
2023-01-30T17:55:26.577Z,4.90
2023-01-30T17:59:50.575Z,4.80
2023-01-30T18:04:14.503Z,4.80
2023-01-30T18:08:39.630Z,4.80
2023-01-30T18:13:03.508Z,4.70
2023-01-30T18:17:29.464Z,4.80
2023-01-30T18:21:53.486Z,4.80
2023-01-30T18:26:19.649Z,4.90
2023-01-30T18:30:43.526Z,4.90
2023-01-30T18:35:08.758Z,5.00
2023-01-30T18:39:33.143Z,5.00
2023-01-30T18:43:59.882Z,5.10
2023-01-30T18:48:23.678Z,5.20
2023-01-30T18:52:48.138Z,5.20
2023-01-30T18:57:11.957Z,5.20
2023-01-30T19:01:39.071Z,5.30
2023-01-30T19:06:03.182Z,5.20
2023-01-30T19:10:27.140Z,5.10
2023-01-30T19:14:51.190Z,5.00
2023-01-30T19:19:16.717Z,4.80
2023-01-30T19:23:40.671Z,4.70
2023-01-30T19:28:06.551Z,4.60
2023-01-30T19:32:30.614Z,4.50
2023-01-30T19:36:55.924Z,4.50
2023-01-30T19:41:23.101Z,4.40
2023-01-30T19:45:47.184Z,4.30
2023-01-30T19:50:12.397Z,4.30
2023-01-30T19:54:37.767Z,4.30
2023-01-30T19:59:02.591Z,4.30
2023-01-30T20:03:26.837Z,4.40
2023-01-30T20:07:51.108Z,4.50
2023-01-30T20:12:16.342Z,4.60
2023-01-30T20:16:40.443Z,4.60
2023-01-30T20:21:09.924Z,4.70
2023-01-30T20:25:36.785Z,4.60
2023-01-30T20:30:02.106Z,4.60
2023-01-30T20:34:26.269Z,4.50
2023-01-30T20:38:53.903Z,4.40
2023-01-30T20:43:18.593Z,4.40
2023-01-30T20:47:43.785Z,4.40
2023-01-30T20:52:07.567Z,4.40
2023-01-30T20:56:33.841Z,4.50
2023-01-30T21:00:57.766Z,4.60
2023-01-30T21:05:23.118Z,4.60
2023-01-30T21:09:40.108Z,4.70
2023-01-30T21:13:58.335Z,4.70
2023-01-30T21:18:16.280Z,4.80
2023-01-30T21:22:41.364Z,4.80
2023-01-30T21:27:05.350Z,4.90
2023-01-30T21:31:31.545Z,4.90
2023-01-30T21:35:55.523Z,4.90
2023-01-30T21:40:39.216Z,4.90
2023-01-30T21:45:05.114Z,4.90
2023-01-30T21:49:29.026Z,4.90
2023-01-30T21:53:55.089Z,4.80
2023-01-30T21:58:20.773Z,4.80
2023-01-30T22:02:44.641Z,4.90
2023-01-30T22:07:08.401Z,4.90
2023-01-30T22:11:32.524Z,4.80
2023-01-30T22:16:02.879Z,4.70
2023-01-30T22:20:26.831Z,4.70
2023-01-30T22:24:50.759Z,4.70
2023-01-30T22:29:18.080Z,4.60
2023-01-30T22:33:44.991Z,4.60
2023-01-30T22:38:09.047Z,4.60
2023-01-30T22:42:32.924Z,4.60
2023-01-30T22:46:56.777Z,4.60
2023-01-30T22:51:23.194Z,4.60
2023-01-30T22:55:47.273Z,4.60
2023-01-30T23:00:12.212Z,4.50
2023-01-30T23:04:36.127Z,4.50
2023-01-30T23:09:02.407Z,4.50
2023-01-30T23:13:26.379Z,4.50
2023-01-30T23:18:07.720Z,4.50
2023-01-30T23:22:32.070Z,4.60
2023-01-30T23:26:57.221Z,4.60
2023-01-30T23:31:23.708Z,4.60
2023-01-30T23:35:47.705Z,4.70
2023-01-30T23:40:12.771Z,4.70
2023-01-30T23:44:41.075Z,4.70
2023-01-30T23:49:06.761Z,4.60
2023-01-30T23:53:30.872Z,4.60
2023-01-30T23:57:56.618Z,4.60
